Home   Weather   USA   Galveston   Past weeks
Flag for USA

Past Weather in Galveston, Texas, USA — Yesterday and Last 2 Weeks

Currently: 72 °F. Fog. (Weather station: Scholes Field, USA). See more current weather

Past Weather in Galveston — Graph

°F

Galveston Temperature Yesterday

Maximum temperature yesterday: 75 °F (at 12:14 pm)
Minimum temperature yesterday: 67 °F (at 12:52 am)
Average temperature yesterday: 71 °F

High & Low Weather Summary for the Past Weeks

 TemperatureHumidityPressure
High89 °F (Nov 27, 11:52 am)100% (Nov 23, 9:18 pm)30.48 "Hg (Nov 23, 9:18 pm)
Low45 °F (Nov 16, 5:52 am)36% (Nov 26, 2:52 pm)29.77 "Hg (Nov 29, 2:52 pm)
Average65 °F77%30.04 "Hg
* Reported Nov 15 7:52 pm — Nov 30 3:41 am, Galveston. Weather by CustomWeather, © 2022

Note: Actual official high and low records may vary slightly from our data, if they occured in-between our weather recording intervals... More about our weather records

Galveston Weather History for the Previous 24 Hours

Scroll right to see more
 ConditionsComfort  
Time TempWeatherWind HumidityBarometerVisibility
3:41 am
Wed, Nov 30
70 °FFog.5 mph90%29.99 "Hg1 mi
3:19 am71 °FFog.7 mph93%29.98 "Hg1 mi
2:42 am75 °FFog.10 mph88%29.97 "Hg5 mi
1:52 am74 °FFog.6 mph91%29.96 "Hg5 mi
12:52 am75 °FFog.9 mph90%29.95 "Hg4 mi
12:15 am75 °FFog.12 mph90%29.94 "Hg5 mi
11:52 pm
Tue, Nov 29
75 °FFog.12 mph90%29.93 "Hg5 mi
11:24 pm75 °FFog.9 mph90%29.93 "Hg4 mi
11:02 pm74 °FFog.9 mph94%29.93 "Hg3 mi
10:52 pm74 °FFog.10 mph94%29.93 "Hg2 mi
10:38 pm73 °FFog.10 mph94%29.92 "Hg1 mi
9:52 pm72 °FFog.12 mph93%29.90 "Hg4 mi
9:16 pm71 °FFog.10 mph93%29.88 "Hg4 mi
9:07 pm71 °FFog.10 mph93%29.88 "Hg2 mi
8:52 pm70 °FFog.9 mph93%29.87 "Hg1 mi
8:12 pm71 °FFog.12 mph93%29.85 "Hg1 mi
8:00 pm72 °FFog.13 mph93%29.85 "Hg2 mi
7:32 pm73 °FFog.16 mph94%29.83 "Hg5 mi
7:12 pm71 °FFog.14 mph93%29.82 "Hg2 mi
6:52 pm72 °FFog.17 mph93%29.80 "Hg5 mi
4:52 pm73 °FFog.15 mph90%29.78 "Hg2 mi
3:52 pm73 °FFog.13 mph90%29.77 "Hg2 mi
2:52 pm74 °FFog.14 mph88%29.77 "Hg2 mi
1:52 pm75 °FFog.18 mph88%29.78 "Hg2 mi
1:15 pm73 °FFog.16 mph90%29.79 "Hg2 mi
1:07 pm74 °FFog.15 mph91%29.79 "Hg3 mi
12:14 pm75 °FFog.17 mph88%29.81 "Hg3 mi
9:52 am72 °FFog.13 mph97%29.86 "Hg5 mi
9:32 am71 °FFog.9 mph100%29.86 "Hg1 mi
9:14 am70 °FFog.10 mph100%29.86 "Hg1 mi
8:16 am70 °FFog.9 mph100%29.85 "Hg1 mi
7:52 am70 °FFog.14 mph100%29.85 "Hg1 mi
7:15 am70 °FFog.15 mph97%29.83 "Hg1 mi
6:52 am69 °FFog.12 mph96%29.83 "Hg1 mi
6:34 am68 °FFog.14 mph100%29.83 "Hg1 mi
5:59 am68 °FFog.13 mph100%29.82 "Hg0 mi
5:27 am68 °FFog.13 mph100%29.81 "Hg1 mi
4:50 am68 °FFog.13 mph100%29.81 "Hg2 mi
4:35 am68 °FFog.14 mph100%29.81 "Hg2 mi
4:00 am68 °FFog.15 mph100%29.81 "Hg4 mi
Weather by CustomWeather, © 2022

See weather overview